Redfield, Iowa
Current Conditions -  °F | °C
As of 12:55 PM on Monday 20 Oct 2014 (Local Time) from KPRO Reporting Station
Clear Clear  
Wind Chill: 68°   Ceiling: Unl
Heat Index: 68°   Visibility: 10mi
Dew Point: 40°   Wind: 10mph
Humidity: 36%   Direction: 310°NW
Pressure: 30.04"   Gusts: 16mph
Location:  41.59°N, 94.2°W
Report Text: KPRO 201755Z AUTO 31009G14KT 10SM CLR 20/05 A3004 RMK AO2 T02010047 10201 20046
Loading
Personal Weather Stations






























Interactive Weather Map
Tropical Storm Tracking
New forecast layout! Learn more

10-Day Weather Forecast

Advertisements
Track Severe Weather on mobile